Time;durP1;ratioP1;P1;durP2;ratioP2;P2;SDS_P1;SDS_P2;PMS_P1;PMS_P2;Temp;Humidity;BMP_temperature;BMP_pressure;BME280_temperature;BME280_humidity;BME280_pressure;Samples;Min_cycle;Max_cycle;Signal;HPM_P1;HPM_P2
2024/01/31 00:00:23;;;;;;;12.63;1.55;;;26.80;46.10;;;;;;5065074;28;20073;-62
2024/01/31 00:02:49;;;;;;;4.93;1.10;;;26.80;46.80;;;;;;5059928;28;20799;-63
2024/01/31 00:05:16;;;;;;;8.95;1.42;;;26.80;47.60;;;;;;5062873;28;20166;-62
2024/01/31 00:07:45;;;;;;;10.98;1.45;;;26.70;46.90;;;;;;5058797;28;20080;-64
2024/01/31 00:10:12;;;;;;;7.25;2.55;;;26.60;46.60;;;;;;5061076;28;20087;-63
2024/01/31 00:12:40;;;;;;;7.55;2.30;;;26.50;46.50;;;;;;5061005;28;20084;-62
2024/01/31 00:15:07;;;;;;;5.97;1.85;;;26.50;45.70;;;;;;5059862;28;20124;-63
2024/01/31 00:17:34;;;;;;;5.93;1.30;;;26.90;45.30;;;;;;5061746;28;20074;-62
2024/01/31 00:20:00;;;;;;;5.72;1.05;;;27.30;44.60;;;;;;5059873;28;20120;-63
2024/01/31 00:22:27;;;;;;;6.47;1.10;;;27.20;43.70;;;;;;5061974;28;20496;-63
2024/01/31 00:24:53;;;;;;;18.20;1.40;;;26.80;45.30;;;;;;5058947;28;20105;-63
2024/01/31 00:27:20;;;;;;;11.07;1.45;;;26.40;45.40;;;;;;5062982;28;20082;-63
2024/01/31 00:29:46;;;;;;;7.63;1.27;;;26.40;45.30;;;;;;5061317;28;20070;-63
2024/01/31 00:32:13;;;;;;;3.25;0.93;;;26.70;45.10;;;;;;5064407;28;20069;-63
2024/01/31 00:34:39;;;;;;;8.75;1.27;;;26.50;45.60;;;;;;5061440;28;20537;-62
2024/01/31 00:37:06;;;;;;;4.85;1.15;;;26.00;44.90;;;;;;5062451;28;20099;-64
2024/01/31 00:39:32;;;;;;;11.13;1.20;;;25.50;46.60;;;;;;5063287;28;20073;-63
2024/01/31 00:41:59;;;;;;;5.68;1.27;;;25.30;47.90;;;;;;5059999;28;20152;-64
2024/01/31 00:44:26;;;;;;;22.08;2.13;;;25.00;48.20;;;;;;5062907;28;20166;-63
2024/01/31 00:46:52;;;;;;;15.18;2.28;;;24.70;48.50;;;;;;5059365;28;20495;-63
2024/01/31 00:49:19;;;;;;;25.90;7.82;;;24.40;48.60;;;;;;5059255;28;20086;-63
2024/01/31 00:51:45;;;;;;;9.57;2.70;;;24.10;49.60;;;;;;5063537;28;20185;-63
2024/01/31 00:54:12;;;;;;;20.00;5.07;;;23.90;49.30;;;;;;5059746;28;20425;-63
2024/01/31 00:56:39;;;;;;;13.90;2.90;;;23.80;49.70;;;;;;5062752;28;20556;-63
2024/01/31 00:59:06;;;;;;;12.75;2.70;;;23.70;50.60;;;;;;5059287;28;20167;-63
2024/01/31 01:01:32;;;;;;;17.85;2.85;;;23.50;51.40;;;;;;5062133;28;20069;-63
2024/01/31 01:03:58;;;;;;;29.30;3.28;;;23.30;52.10;;;;;;5058729;28;20166;-63
2024/01/31 01:06:25;;;;;;;24.63;3.90;;;23.00;51.90;;;;;;5058190;28;20073;-63
2024/01/31 01:08:52;;;;;;;17.50;3.50;;;22.90;52.50;;;;;;5063918;28;20160;-63
2024/01/31 01:11:19;;;;;;;25.40;3.17;;;22.70;53.40;;;;;;5063187;28;20190;-62
2024/01/31 01:13:47;;;;;;;23.13;4.25;;;22.60;53.90;;;;;;5064810;28;20131;-62
2024/01/31 01:16:13;;;;;;;20.48;3.30;;;22.40;54.40;;;;;;5063969;28;20073;-62
2024/01/31 01:18:40;;;;;;;42.95;4.97;;;22.30;55.10;;;;;;5065387;28;20073;-63
2024/01/31 01:21:06;;;;;;;45.92;4.80;;;22.10;55.30;;;;;;5064635;28;20073;-62
2024/01/31 01:23:33;;;;;;;44.58;5.07;;;21.90;55.90;;;;;;5061403;28;20490;-64
2024/01/31 01:25:59;;;;;;;31.58;5.38;;;21.80;56.90;;;;;;5064014;28;20126;-62
2024/01/31 01:28:26;;;;;;;59.10;6.65;;;21.70;57.10;;;;;;5066529;28;21228;-64
2024/01/31 01:30:52;;;;;;;50.45;6.30;;;21.60;57.60;;;;;;5067031;28;20447;-64
2024/01/31 01:33:19;;;;;;;57.97;13.57;;;21.50;59.30;;;;;;5064556;28;20518;-62
2024/01/31 01:35:45;;;;;;;52.15;7.70;;;21.50;60.00;;;;;;5059399;28;20133;-64
2024/01/31 01:38:12;;;;;;;48.35;5.95;;;21.40;60.20;;;;;;5067029;28;20076;-64
2024/01/31 01:40:45;;;;;;;59.33;6.97;;;21.30;60.10;;;;;;5061811;28;20077;-63
2024/01/31 01:43:19;;;;;;;48.53;6.25;;;21.10;61.00;;;;;;5063088;28;20170;-64
2024/01/31 01:45:45;;;;;;;47.95;7.70;;;20.90;61.00;;;;;;5063225;28;20084;-63
2024/01/31 01:48:18;;;;;;;62.55;8.05;;;20.90;61.70;;;;;;5062075;28;20069;-63
2024/01/31 01:50:46;;;;;;;68.47;8.00;;;20.80;63.60;;;;;;5061448;28;20080;-63
2024/01/31 01:53:12;;;;;;;69.93;8.30;;;20.80;64.10;;;;;;5064712;28;20088;-62
2024/01/31 01:55:43;;;;;;;55.17;7.18;;;20.70;64.40;;;;;;5063531;28;20100;-64
2024/01/31 01:58:10;;;;;;;53.85;7.70;;;20.60;64.80;;;;;;5067455;28;20551;-64
2024/01/31 02:00:40;;;;;;;51.70;7.32;;;20.50;65.00;;;;;;5065172;28;20164;-64
2024/01/31 02:03:07;;;;;;;74.72;10.27;;;20.40;65.60;;;;;;5061673;28;20108;-62
2024/01/31 02:05:34;;;;;;;77.03;9.77;;;20.30;66.50;;;;;;5064854;28;20085;-62
2024/01/31 02:08:01;;;;;;;45.97;8.13;;;20.20;66.70;;;;;;5061688;28;20101;-64
2024/01/31 02:10:27;;;;;;;69.07;9.68;;;20.10;67.00;;;;;;5062138;28;20123;-63
2024/01/31 02:12:54;;;;;;;64.50;9.43;;;20.00;68.70;;;;;;5066570;28;21762;-66
2024/01/31 02:15:20;;;;;;;63.22;8.98;;;20.00;68.60;;;;;;5064276;28;20069;-65
2024/01/31 02:17:46;;;;;;;90.65;10.80;;;19.90;68.40;;;;;;5059483;28;20164;-64
2024/01/31 02:20:15;;;;;;;55.83;10.05;;;19.80;69.50;;;;;;5061525;28;20092;-61
2024/01/31 02:22:47;;;;;;;53.08;8.48;;;19.70;69.60;;;;;;5061453;28;20530;-65
2024/01/31 02:25:14;;;;;;;69.90;8.88;;;19.60;69.90;;;;;;5067526;28;20471;-65
2024/01/31 02:27:41;;;;;;;88.50;10.75;;;19.50;70.30;;;;;;5063574;28;20135;-62
2024/01/31 02:30:08;;;;;;;67.68;9.60;;;19.50;71.20;;;;;;5063039;28;20080;-64
2024/01/31 02:32:36;;;;;;;69.75;15.68;;;19.40;71.30;;;;;;5064311;28;20158;-64
2024/01/31 02:35:02;;;;;;;82.53;11.73;;;19.40;71.90;;;;;;5062030;28;20095;-62
2024/01/31 02:37:29;;;;;;;92.82;11.80;;;19.30;72.20;;;;;;5060247;28;20172;-63
2024/01/31 02:39:55;;;;;;;67.43;11.20;;;19.30;73.10;;;;;;5059059;28;20081;-63
2024/01/31 02:42:22;;;;;;;61.35;10.32;;;19.20;73.10;;;;;;5062538;28;21220;-63
2024/01/31 02:44:48;;;;;;;76.00;12.10;;;19.20;73.30;;;;;;5062466;28;20101;-63
2024/01/31 02:47:14;;;;;;;89.45;11.80;;;19.20;74.50;;;;;;5060456;28;20523;-63
2024/01/31 02:49:41;;;;;;;95.07;12.57;;;19.10;74.60;;;;;;5063498;28;20160;-63
2024/01/31 02:52:07;;;;;;;81.90;12.50;;;19.00;74.00;;;;;;5061590;28;20160;-63
2024/01/31 02:54:34;;;;;;;75.50;12.52;;;19.00;74.10;;;;;;5061181;28;20077;-62
2024/01/31 02:57:00;;;;;;;96.72;14.18;;;19.00;74.40;;;;;;5064496;28;20167;-62
2024/01/31 02:59:27;;;;;;;86.45;14.05;;;18.90;74.20;;;;;;5066618;28;20532;-65
2024/01/31 03:01:53;;;;;;;107.30;13.43;;;18.80;74.20;;;;;;5064724;28;20076;-62
2024/01/31 03:04:20;;;;;;;88.50;14.40;;;18.80;74.70;;;;;;5060351;28;20628;-63
2024/01/31 03:06:46;;;;;;;105.05;15.20;;;18.80;75.30;;;;;;5064328;28;20123;-61
2024/01/31 03:09:13;;;;;;;99.70;15.75;;;18.70;75.80;;;;;;5066983;28;20077;-62
2024/01/31 03:11:39;;;;;;;97.97;16.40;;;18.60;76.40;;;;;;5060463;28;20085;-63
2024/01/31 03:14:06;;;;;;;103.40;18.23;;;18.50;76.80;;;;;;5063433;28;20072;-62
2024/01/31 03:16:32;;;;;;;96.43;17.83;;;18.50;77.00;;;;;;5057859;28;20072;-64
2024/01/31 03:18:59;;;;;;;114.78;18.25;;;18.40;77.40;;;;;;5061800;28;20088;-63
2024/01/31 03:21:25;;;;;;;103.80;16.98;;;18.40;77.90;;;;;;5061119;28;20162;-61
2024/01/31 03:23:55;;;;;;;114.63;17.98;;;18.40;78.10;;;;;;5062989;28;20108;-62
2024/01/31 03:26:21;;;;;;;110.22;19.90;;;18.30;78.70;;;;;;5060707;28;20069;-64
2024/01/31 03:28:48;;;;;;;128.15;19.08;;;18.20;79.20;;;;;;5062589;28;20080;-66
2024/01/31 03:31:15;;;;;;;123.05;20.20;;;18.10;80.30;;;;;;5058917;28;21509;-63
2024/01/31 03:33:41;;;;;;;118.95;18.73;;;18.10;81.30;;;;;;5061357;28;20210;-63
2024/01/31 03:36:11;;;;;;;127.57;19.08;;;18.00;81.80;;;;;;5063515;28;20168;-64
2024/01/31 03:38:38;;;;;;;125.18;18.88;;;18.00;82.10;;;;;;5063712;28;20085;-63
2024/01/31 03:41:06;;;;;;;128.90;24.52;;;18.00;82.50;;;;;;5060396;28;20533;-64
2024/01/31 03:43:33;;;;;;;109.82;18.83;;;17.90;82.60;;;;;;5062296;28;20280;-64
2024/01/31 03:46:02;;;;;;;131.35;19.83;;;17.90;82.90;;;;;;5061011;28;20131;-64
2024/01/31 03:48:30;;;;;;;123.75;19.17;;;17.80;83.30;;;;;;5062639;28;20081;-65
2024/01/31 03:50:58;;;;;;;109.15;17.90;;;17.80;83.70;;;;;;5059090;28;20533;-64
2024/01/31 03:53:25;;;;;;;127.00;20.08;;;17.80;84.30;;;;;;5060520;28;20126;-66
2024/01/31 03:55:52;;;;;;;127.25;22.73;;;17.70;84.60;;;;;;5060831;28;20156;-66
2024/01/31 03:58:19;;;;;;;139.68;22.75;;;17.70;85.00;;;;;;5066178;28;20571;-65
2024/01/31 04:00:46;;;;;;;151.70;22.88;;;17.60;85.10;;;;;;5061092;28;20130;-66
2024/01/31 04:03:12;;;;;;;130.30;22.92;;;17.60;85.60;;;;;;5059336;28;20207;-64
2024/01/31 04:05:39;;;;;;;162.40;24.42;;;17.50;87.30;;;;;;5060847;28;20081;-65
2024/01/31 04:08:06;;;;;;;139.38;23.40;;;17.50;87.60;;;;;;5063217;28;20077;-65
2024/01/31 04:10:33;;;;;;;146.95;23.48;;;17.50;87.60;;;;;;5060560;28;20073;-63
2024/01/31 04:12:59;;;;;;;135.50;22.48;;;17.40;88.00;;;;;;5063612;28;20474;-64
2024/01/31 04:15:26;;;;;;;144.07;23.38;;;17.40;88.80;;;;;;5058991;28;20081;-64
2024/01/31 04:17:53;;;;;;;153.15;23.40;;;17.40;90.00;;;;;;5061389;28;20135;-63
2024/01/31 04:20:20;;;;;;;147.02;23.13;;;17.30;90.20;;;;;;5060281;28;20566;-62
2024/01/31 04:22:47;;;;;;;144.50;23.40;;;17.20;90.40;;;;;;5058314;28;20677;-63
2024/01/31 04:25:14;;;;;;;173.45;27.35;;;17.20;90.70;;;;;;5062639;28;20169;-64
2024/01/31 04:27:41;;;;;;;135.45;24.77;;;17.20;90.90;;;;;;5064092;28;20464;-63
2024/01/31 04:30:10;;;;;;;131.18;26.90;;;17.20;90.90;;;;;;5058072;28;20077;-64
2024/01/31 04:32:37;;;;;;;155.68;25.40;;;17.10;90.90;;;;;;5060184;28;20092;-64
2024/01/31 04:35:08;;;;;;;128.23;26.40;;;17.10;91.10;;;;;;5060858;28;20093;-65
2024/01/31 04:37:35;;;;;;;164.85;29.52;;;17.10;91.70;;;;;;5060874;28;20081;-65
2024/01/31 04:40:01;;;;;;;170.45;32.13;;;17.00;91.80;;;;;;5060800;28;20163;-64
2024/01/31 04:42:28;;;;;;;170.15;34.50;;;17.00;92.00;;;;;;5061476;28;20207;-63
2024/01/31 04:44:54;;;;;;;183.75;34.80;;;17.00;92.10;;;;;;5068859;28;20149;-64
2024/01/31 04:47:25;;;;;;;162.25;31.73;;;16.90;92.20;;;;;;5068134;28;20077;-63
2024/01/31 04:49:52;;;;;;;196.75;34.45;;;16.80;92.40;;;;;;5071733;28;20182;-63
2024/01/31 04:52:19;;;;;;;189.32;33.53;;;16.90;93.10;;;;;;5070795;28;20091;-65
2024/01/31 04:54:45;;;;;;;189.88;33.13;;;16.80;93.40;;;;;;5071818;28;20577;-64
2024/01/31 04:57:12;;;;;;;195.85;36.28;;;16.80;93.50;;;;;;5069733;28;20092;-63
2024/01/31 04:59:42;;;;;;;164.10;34.40;;;16.80;93.60;;;;;;5074633;28;20069;-64
2024/01/31 05:02:09;;;;;;;173.18;34.13;;;16.80;93.60;;;;;;5061954;28;20152;-64
2024/01/31 05:04:40;;;;;;;174.23;35.25;;;16.80;93.80;;;;;;5064287;28;20109;-63
2024/01/31 05:07:06;;;;;;;189.05;35.95;;;16.70;94.20;;;;;;5064199;28;20073;-64
2024/01/31 05:09:33;;;;;;;208.77;35.50;;;16.70;94.40;;;;;;5062725;28;20073;-64
2024/01/31 05:12:00;;;;;;;180.10;36.15;;;16.80;94.60;;;;;;5063317;28;20555;-63
2024/01/31 05:14:26;;;;;;;171.40;36.33;;;16.80;94.80;;;;;;5066699;28;20076;-63
2024/01/31 05:16:53;;;;;;;168.60;35.65;;;16.80;95.00;;;;;;5066623;28;20075;-63
2024/01/31 05:19:19;;;;;;;195.10;36.40;;;16.70;95.40;;;;;;5063579;28;20131;-63
2024/01/31 05:21:46;;;;;;;193.65;38.60;;;16.80;95.70;;;;;;5062985;28;20130;-64
2024/01/31 05:24:13;;;;;;;186.38;38.28;;;16.80;95.50;;;;;;5064757;28;20196;-63
2024/01/31 05:26:41;;;;;;;207.48;39.50;;;16.80;95.50;;;;;;5062908;28;20085;-63
2024/01/31 05:29:07;;;;;;;191.05;40.65;;;16.80;95.50;;;;;;5063298;28;20522;-64
2024/01/31 05:31:34;;;;;;;184.90;40.20;;;16.90;95.60;;;;;;5066116;28;20126;-63
2024/01/31 05:34:00;;;;;;;165.40;38.33;;;16.80;95.70;;;;;;5064662;28;20444;-64
2024/01/31 05:36:27;;;;;;;210.82;39.30;;;16.80;96.10;;;;;;5065341;28;20101;-64
2024/01/31 05:38:53;;;;;;;176.30;38.72;;;16.80;96.10;;;;;;5062938;28;20545;-63
2024/01/31 05:41:20;;;;;;;190.43;37.67;;;16.80;96.20;;;;;;5063696;28;20085;-63
2024/01/31 05:43:46;;;;;;;164.23;39.20;;;16.80;96.30;;;;;;5063232;28;20113;-64
2024/01/31 05:46:17;;;;;;;187.35;39.53;;;16.90;96.50;;;;;;5063491;28;20912;-64
2024/01/31 05:48:47;;;;;;;181.68;38.80;;;16.80;96.70;;;;;;5062294;28;20085;-63
2024/01/31 05:51:14;;;;;;;171.65;37.90;;;16.80;96.80;;;;;;5062028;28;20069;-66
2024/01/31 05:53:41;;;;;;;187.25;40.30;;;16.70;97.10;;;;;;5059995;28;20453;-62
2024/01/31 05:56:08;;;;;;;199.82;40.53;;;16.70;97.40;;;;;;5061647;28;20080;-61
2024/01/31 05:58:34;;;;;;;174.25;42.47;;;16.70;97.50;;;;;;5064994;28;20096;-63
2024/01/31 06:01:01;;;;;;;161.10;41.30;;;16.70;97.60;;;;;;5065253;28;20134;-64
2024/01/31 06:03:28;;;;;;;175.98;40.10;;;16.70;97.70;;;;;;5063229;28;20560;-63
2024/01/31 06:05:55;;;;;;;180.43;42.38;;;16.60;97.90;;;;;;5062329;28;20413;-63
2024/01/31 06:08:23;;;;;;;156.88;40.22;;;16.60;98.40;;;;;;5063352;28;20087;-63
2024/01/31 06:10:54;;;;;;;179.05;41.97;;;16.60;98.70;;;;;;5063943;28;20077;-63
2024/01/31 06:13:21;;;;;;;161.98;40.40;;;16.50;98.80;;;;;;5060641;28;20073;-64
2024/01/31 06:15:47;;;;;;;203.23;42.42;;;16.50;99.00;;;;;;5060744;28;20082;-61
2024/01/31 06:18:15;;;;;;;176.63;41.90;;;16.50;99.00;;;;;;5063304;28;20284;-65
2024/01/31 06:20:46;;;;;;;185.25;41.17;;;16.50;99.10;;;;;;5063928;28;20159;-61
2024/01/31 06:23:13;;;;;;;163.43;41.00;;;16.40;99.10;;;;;;5060349;28;20069;-63
2024/01/31 06:25:40;;;;;;;208.15;39.75;;;16.40;99.30;;;;;;5062460;28;20147;-63
2024/01/31 06:28:07;;;;;;;151.45;39.28;;;16.40;99.40;;;;;;5060770;28;20085;-64
2024/01/31 06:30:44;;;;;;;150.90;39.15;;;16.40;99.80;;;;;;5063262;28;20089;-65
2024/01/31 06:33:17;;;;;;;206.35;67.53;;;16.30;99.90;;;;;;5063399;28;20440;-65
2024/01/31 06:35:47;;;;;;;160.63;48.72;;;16.30;99.90;;;;;;5066818;28;20135;-64
2024/01/31 06:38:13;;;;;;;173.25;40.58;;;16.20;99.90;;;;;;5062262;28;20072;-61
2024/01/31 06:40:40;;;;;;;184.27;46.03;;;16.20;99.90;;;;;;5064081;28;20453;-63
2024/01/31 06:43:06;;;;;;;159.88;40.70;;;16.20;99.90;;;;;;5061240;28;20191;-62
2024/01/31 06:45:33;;;;;;;154.45;41.28;;;16.20;99.90;;;;;;5062453;28;20190;-62
2024/01/31 06:48:00;;;;;;;171.13;39.33;;;16.10;99.90;;;;;;5062009;28;20122;-64
2024/01/31 06:50:27;;;;;;;132.07;39.47;;;16.10;99.90;;;;;;5062711;28;20073;-63
2024/01/31 06:52:54;;;;;;;158.13;39.17;;;16.00;99.90;;;;;;5062248;28;20073;-63
2024/01/31 06:55:20;;;;;;;177.02;38.85;;;16.00;99.90;;;;;;5062135;28;20069;-64
2024/01/31 06:57:47;;;;;;;164.48;38.75;;;16.00;99.90;;;;;;5063944;28;20100;-63
2024/01/31 07:00:15;;;;;;;144.75;35.38;;;16.10;99.90;;;;;;5060539;28;20073;-62
2024/01/31 07:02:42;;;;;;;185.35;39.95;;;16.10;99.90;;;;;;5063247;28;20073;-63
2024/01/31 07:05:09;;;;;;;166.65;41.72;;;16.00;99.90;;;;;;5061861;28;20186;-64
2024/01/31 07:07:35;;;;;;;143.23;35.42;;;16.00;99.90;;;;;;5061099;28;20167;-62
2024/01/31 07:10:02;;;;;;;144.85;35.42;;;16.00;99.90;;;;;;5062223;28;20076;-64
2024/01/31 07:12:29;;;;;;;128.45;31.40;;;15.90;99.90;;;;;;5061881;28;20074;-61
2024/01/31 07:14:55;;;;;;;165.68;33.17;;;16.00;99.90;;;;;;5061520;28;20199;-63
2024/01/31 07:17:22;;;;;;;148.60;33.53;;;15.90;99.90;;;;;;5061903;28;20081;-65
2024/01/31 07:19:49;;;;;;;156.70;33.03;;;15.90;99.90;;;;;;5058953;28;20085;-64
2024/01/31 07:22:15;;;;;;;131.30;32.30;;;15.80;99.90;;;;;;5060213;28;20065;-63
2024/01/31 07:24:43;;;;;;;162.02;35.67;;;15.80;99.90;;;;;;5059357;28;20131;-64
2024/01/31 07:27:10;;;;;;;152.80;33.47;;;15.80;99.90;;;;;;5061145;28;20101;-63
2024/01/31 07:29:36;;;;;;;129.60;32.38;;;15.70;99.90;;;;;;5062961;28;20088;-63
2024/01/31 07:32:03;;;;;;;157.65;31.95;;;15.60;99.90;;;;;;5058132;28;20077;-63
2024/01/31 07:34:29;;;;;;;140.00;33.42;;;15.60;99.90;;;;;;5059882;28;20084;-62
2024/01/31 07:36:56;;;;;;;130.82;30.40;;;15.50;99.90;;;;;;5060374;28;20536;-63
2024/01/31 07:39:22;;;;;;;127.85;30.80;;;15.40;99.90;;;;;;5061581;28;20556;-64
2024/01/31 07:41:49;;;;;;;132.48;29.58;;;15.40;99.90;;;;;;5057141;28;20569;-64
2024/01/31 07:44:15;;;;;;;135.25;30.73;;;15.50;99.90;;;;;;5061300;28;20595;-63
2024/01/31 07:46:44;;;;;;;139.02;31.25;;;15.50;99.90;;;;;;5059760;28;20101;-63
2024/01/31 07:49:11;;;;;;;155.48;30.70;;;15.40;99.90;;;;;;5061285;28;20116;-62
2024/01/31 07:51:44;;;;;;;141.95;31.77;;;15.30;99.90;;;;;;5060808;28;20474;-64
2024/01/31 07:54:11;;;;;;;122.43;30.38;;;15.30;99.90;;;;;;5058651;28;20089;-63
2024/01/31 07:56:38;;;;;;;127.40;28.08;;;15.30;99.90;;;;;;5063278;28;20085;-64
2024/01/31 07:59:06;;;;;;;138.52;29.63;;;15.20;99.90;;;;;;5062246;28;20126;-65
2024/01/31 08:01:33;;;;;;;109.13;26.38;;;15.10;99.90;;;;;;5060619;28;20152;-63
2024/01/31 08:03:59;;;;;;;101.15;26.15;;;15.00;99.90;;;;;;5061572;28;20124;-65
2024/01/31 08:06:26;;;;;;;103.68;25.58;;;15.00;99.90;;;;;;5060070;28;20174;-63
2024/01/31 08:08:52;;;;;;;110.88;24.73;;;15.00;99.90;;;;;;5062479;28;20080;-63
2024/01/31 08:11:19;;;;;;;97.50;25.30;;;15.00;99.90;;;;;;5060953;28;20152;-64
2024/01/31 08:13:45;;;;;;;105.22;28.02;;;14.90;99.90;;;;;;5061039;28;20073;-63
2024/01/31 08:16:12;;;;;;;101.35;28.30;;;14.90;99.90;;;;;;5059362;28;20129;-63
2024/01/31 08:18:39;;;;;;;87.38;26.65;;;14.90;99.90;;;;;;5062303;28;20074;-64
2024/01/31 08:21:07;;;;;;;124.35;30.92;;;14.80;99.90;;;;;;5065480;28;20587;-64
2024/01/31 08:23:33;;;;;;;84.22;26.90;;;14.70;99.90;;;;;;5063111;28;20424;-64
2024/01/31 08:26:00;;;;;;;92.40;27.50;;;14.70;99.90;;;;;;5062884;28;20093;-64
2024/01/31 08:28:26;;;;;;;99.15;27.58;;;14.60;99.90;;;;;;5065494;28;20440;-64
2024/01/31 08:30:53;;;;;;;93.72;26.52;;;14.60;99.90;;;;;;5062782;28;20448;-64
2024/01/31 08:33:20;;;;;;;98.68;25.75;;;14.70;99.90;;;;;;5061780;28;20087;-64
2024/01/31 08:35:46;;;;;;;90.05;25.55;;;14.60;99.90;;;;;;5065057;28;20073;-64
2024/01/31 08:38:13;;;;;;;93.00;28.20;;;14.70;99.90;;;;;;5065059;28;20257;-63
2024/01/31 08:40:39;;;;;;;100.07;26.90;;;14.80;99.90;;;;;;5066119;28;20069;-64
2024/01/31 08:43:05;;;;;;;100.40;26.15;;;14.70;99.90;;;;;;5064556;28;20120;-63
2024/01/31 08:45:32;;;;;;;98.65;27.02;;;14.70;99.90;;;;;;5064328;28;20136;-63
2024/01/31 08:47:59;;;;;;;78.22;24.60;;;14.60;99.90;;;;;;5064762;28;20084;-64
2024/01/31 08:50:25;;;;;;;77.72;26.30;;;14.60;99.90;;;;;;5062108;28;20105;-64
2024/01/31 08:52:53;;;;;;;84.65;26.95;;;14.60;99.90;;;;;;5063906;28;20081;-63
2024/01/31 08:55:20;;;;;;;92.43;28.98;;;14.60;99.90;;;;;;5063094;28;20085;-63
2024/01/31 08:57:46;;;;;;;85.25;27.30;;;14.50;99.90;;;;;;5063707;28;20533;-63
2024/01/31 09:00:13;;;;;;;82.53;27.65;;;14.40;99.90;;;;;;5068500;28;20081;-63
2024/01/31 09:02:40;;;;;;;86.68;27.45;;;14.40;99.90;;;;;;5063999;28;20089;-64
2024/01/31 09:05:10;;;;;;;91.07;27.25;;;14.40;99.90;;;;;;5064698;28;20116;-65
2024/01/31 09:07:37;;;;;;;76.82;28.42;;;14.50;99.90;;;;;;5064240;28;20092;-63
2024/01/31 09:10:04;;;;;;;83.57;27.38;;;14.50;99.90;;;;;;5063472;28;20076;-64
2024/01/31 09:12:31;;;;;;;77.35;27.58;;;14.40;99.90;;;;;;5062939;28;21673;-64
2024/01/31 09:14:57;;;;;;;79.82;27.02;;;14.30;99.90;;;;;;5064633;28;20073;-63
2024/01/31 09:17:24;;;;;;;90.35;30.23;;;14.20;99.90;;;;;;5066815;28;20077;-64
2024/01/31 09:19:50;;;;;;;92.07;30.33;;;14.30;99.90;;;;;;5064565;28;20073;-64
2024/01/31 09:22:17;;;;;;;94.65;29.08;;;14.30;99.90;;;;;;5064209;28;20215;-64
2024/01/31 09:24:44;;;;;;;95.82;28.65;;;14.30;99.90;;;;;;5064478;28;20210;-63
2024/01/31 09:27:11;;;;;;;97.20;29.23;;;14.40;99.90;;;;;;5064811;28;20073;-62
2024/01/31 09:29:37;;;;;;;87.50;29.00;;;14.40;99.90;;;;;;5065156;28;20081;-64
2024/01/31 09:32:04;;;;;;;86.43;28.80;;;14.40;99.90;;;;;;5062583;28;20108;-64
2024/01/31 09:34:30;;;;;;;98.45;30.58;;;14.30;99.90;;;;;;5065364;28;20533;-63
2024/01/31 09:36:57;;;;;;;98.80;32.10;;;14.20;99.90;;;;;;5065201;28;20476;-62
2024/01/31 09:39:24;;;;;;;96.32;29.67;;;14.20;99.90;;;;;;5065635;28;20521;-64
2024/01/31 09:41:51;;;;;;;89.38;32.88;;;14.20;99.90;;;;;;5061282;28;20190;-62
2024/01/31 09:44:18;;;;;;;89.47;31.65;;;14.30;99.90;;;;;;5062935;28;20104;-63
2024/01/31 09:46:47;;;;;;;86.07;33.17;;;14.20;99.90;;;;;;5061457;28;20073;-63
2024/01/31 09:49:14;;;;;;;86.78;30.90;;;14.10;99.90;;;;;;5061378;28;20073;-63
2024/01/31 09:51:40;;;;;;;82.97;32.35;;;14.10;99.90;;;;;;5065532;28;20436;-63
2024/01/31 09:54:09;;;;;;;100.43;33.53;;;14.10;99.90;;;;;;5065771;28;20070;-62
2024/01/31 09:56:36;;;;;;;69.65;29.60;;;14.10;99.90;;;;;;5065845;28;20181;-63
2024/01/31 09:59:03;;;;;;;86.35;30.23;;;14.00;99.90;;;;;;5063830;28;20069;-64
2024/01/31 10:01:30;;;;;;;97.18;32.63;;;13.90;99.90;;;;;;5062973;28;20084;-63
2024/01/31 10:03:57;;;;;;;109.22;36.97;;;13.80;99.90;;;;;;5062223;28;20223;-63
2024/01/31 10:06:29;;;;;;;124.90;41.47;;;13.80;99.90;;;;;;5063421;28;20069;-63
2024/01/31 10:08:59;;;;;;;125.13;45.50;;;13.80;99.90;;;;;;5064903;28;20077;-63
2024/01/31 10:11:27;;;;;;;115.35;42.17;;;13.80;99.90;;;;;;5063489;28;20092;-63
2024/01/31 10:13:55;;;;;;;115.57;41.88;;;13.90;99.90;;;;;;5062107;28;20556;-63
2024/01/31 10:16:22;;;;;;;123.35;43.35;;;13.90;99.90;;;;;;5061380;28;20092;-63
2024/01/31 10:18:48;;;;;;;128.43;43.08;;;13.90;99.90;;;;;;5065070;28;20126;-63
2024/01/31 10:21:21;;;;;;;130.95;44.67;;;13.90;99.90;;;;;;5064804;28;20180;-65
2024/01/31 10:23:58;;;;;;;146.20;51.80;;;13.90;99.90;;;;;;5065033;28;20107;-64
2024/01/31 10:26:28;;;;;;;164.45;61.72;;;13.70;99.90;;;;;;5065371;28;20102;-63
2024/01/31 10:28:57;;;;;;;185.57;65.20;;;13.60;99.90;;;;;;5061332;28;21312;-63
2024/01/31 10:31:23;;;;;;;160.18;60.90;;;13.60;99.90;;;;;;5061946;28;20077;-63
2024/01/31 10:33:50;;;;;;;181.70;68.32;;;13.40;99.90;;;;;;5063715;28;20458;-65
2024/01/31 10:36:19;;;;;;;205.48;78.40;;;13.50;99.90;;;;;;5062173;28;20180;-63
2024/01/31 10:38:46;;;;;;;186.35;79.65;;;13.40;99.90;;;;;;5063849;28;20080;-63
2024/01/31 10:41:15;;;;;;;204.75;82.45;;;13.50;99.90;;;;;;5063017;28;20089;-64
2024/01/31 10:43:43;;;;;;;202.05;84.03;;;13.60;99.90;;;;;;5062842;28;20128;-64
2024/01/31 10:46:09;;;;;;;205.73;83.68;;;13.50;99.90;;;;;;5061682;28;20081;-63
2024/01/31 10:48:36;;;;;;;202.85;86.30;;;13.50;99.90;;;;;;5062135;28;20104;-63
2024/01/31 10:51:05;;;;;;;220.65;91.53;;;13.40;99.90;;;;;;5059871;28;20567;-65
2024/01/31 10:53:32;;;;;;;222.77;89.18;;;13.50;99.90;;;;;;5062435;28;20085;-63
2024/01/31 10:55:59;;;;;;;207.13;88.63;;;13.50;99.90;;;;;;5061924;28;20078;-64
2024/01/31 10:58:27;;;;;;;198.38;86.10;;;13.40;99.90;;;;;;5061481;28;20526;-64
2024/01/31 11:00:54;;;;;;;188.20;88.85;;;13.40;99.90;;;;;;5064796;28;20083;-65
2024/01/31 11:03:22;;;;;;;180.50;89.97;;;13.40;99.90;;;;;;5059347;28;20993;-65
2024/01/31 11:05:51;;;;;;;208.05;89.15;;;13.40;99.90;;;;;;5059544;28;20142;-64
2024/01/31 11:08:22;;;;;;;228.93;92.82;;;13.30;99.90;;;;;;5062534;28;20093;-64
2024/01/31 11:10:49;;;;;;;210.63;91.65;;;13.30;99.90;;;;;;5059534;28;20081;-64
2024/01/31 11:13:16;;;;;;;181.55;89.20;;;13.30;99.90;;;;;;5058678;28;20515;-64
2024/01/31 11:15:43;;;;;;;188.23;86.13;;;13.20;99.90;;;;;;5061547;28;20081;-64
2024/01/31 11:18:14;;;;;;;199.07;91.68;;;13.30;99.90;;;;;;5056589;28;20085;-65
2024/01/31 11:20:49;;;;;;;199.27;90.85;;;13.20;99.90;;;;;;5061961;28;20081;-65
2024/01/31 11:23:17;;;;;;;197.20;92.35;;;13.20;99.90;;;;;;5057592;28;20130;-64
2024/01/31 11:25:45;;;;;;;186.68;89.95;;;13.10;99.90;;;;;;5064305;28;20185;-64
2024/01/31 11:28:16;;;;;;;205.00;91.05;;;13.00;99.90;;;;;;5061973;28;20065;-64
2024/01/31 11:30:43;;;;;;;173.23;90.20;;;13.00;99.90;;;;;;5063259;28;20092;-64
2024/01/31 11:33:10;;;;;;;195.70;93.47;;;13.00;99.90;;;;;;5063195;28;20069;-64
2024/01/31 11:35:36;;;;;;;174.85;89.28;;;13.00;99.90;;;;;;5060665;28;20103;-64
2024/01/31 11:38:06;;;;;;;184.48;91.63;;;13.10;99.90;;;;;;5062469;28;20135;-64
2024/01/31 11:40:33;;;;;;;178.00;89.82;;;13.10;99.90;;;;;;5060523;28;20208;-64
2024/01/31 11:42:59;;;;;;;169.90;90.20;;;13.10;99.90;;;;;;5058956;28;20469;-64
2024/01/31 11:45:26;;;;;;;180.30;89.93;;;13.20;99.90;;;;;;5062073;28;20111;-64
2024/01/31 11:47:57;;;;;;;179.18;91.10;;;13.20;99.90;;;;;;5061814;28;20072;-65
2024/01/31 11:50:25;;;;;;;174.88;88.95;;;13.10;99.90;;;;;;5059498;28;20078;-64
2024/01/31 11:52:52;;;;;;;196.90;97.07;;;13.10;99.90;;;;;;5059856;28;20445;-64
2024/01/31 11:55:28;;;;;;;197.23;101.97;;;13.10;99.90;;;;;;5064283;28;20077;-63
2024/01/31 11:57:55;;;;;;;192.98;99.93;;;13.10;99.90;;;;;;5061724;28;20450;-65
2024/01/31 12:00:21;;;;;;;179.38;101.30;;;13.00;99.90;;;;;;5058999;28;20078;-65
2024/01/31 12:02:49;;;;;;;189.55;101.00;;;13.00;99.90;;;;;;5061116;28;20588;-65
2024/01/31 12:05:16;;;;;;;204.57;104.70;;;13.00;99.90;;;;;;5062427;28;20597;-64
2024/01/31 12:07:43;;;;;;;189.25;95.63;;;13.00;99.90;;;;;;5059807;28;20528;-64
2024/01/31 12:10:10;;;;;;;187.15;100.70;;;13.00;99.90;;;;;;5062117;28;20554;-66
2024/01/31 12:12:42;;;;;;;196.32;96.82;;;12.90;99.90;;;;;;5062825;28;20081;-64
2024/01/31 12:15:12;;;;;;;175.32;93.75;;;12.90;99.90;;;;;;5062510;28;20080;-64
2024/01/31 12:17:40;;;;;;;179.82;97.97;;;12.80;99.90;;;;;;5059311;28;20092;-63
2024/01/31 12:20:12;;;;;;;207.98;101.45;;;12.70;99.90;;;;;;5059756;28;20092;-65
2024/01/31 12:22:39;;;;;;;190.10;92.15;;;12.70;99.90;;;;;;5061466;28;20085;-65